Ridgecrest, CA (93555)

22:16 PDT le 26 septembre 2016 (GMT -0700)
Ridgecrest Heights, CA 93555 | | Change Station

Alt. 2392 ft 35.60 °N, 117.70 °W | Updated 13 seconds ago

Clear
Ciel dégagé
72.1 ° F
Paraît 75 ° F
N
3.1
Vent Variable Vent de OSO
Gusts 3.1 mph

Aujourd'hui
Haut(e) -- | Bas -- ° F
--% Risque de précip.
Hier
Haut(e) -- | Bas -- ° F
Precip. -- pouce
Pression 29.98 pouce
Visibilité 10.0 Miles terrestres
Nuages Ciel dégagé
indice de chaleur 75 ° F
Point de rosée 30 ° F
Humidité 21%
Précipitations 0.00 pouce
Profondeur de la couche neigeuse Non disponible.
6:42 AM 6:40 PM
Lune descendante, 14% visible
METAR KNID 270456Z 21009KT 10SM CLR 21/M06 A3003 RMK AO2 SLP152 T02061056 $
Pression 29.98 pouce
Visibilité 10.0 Miles terrestres
Nuages Ciel dégagé
indice de chaleur 75 ° F
Point de rosée 30 ° F
Humidité 21%
Précipitations 0.00 pouce
Profondeur de la couche neigeuse Non disponible.
6:42 AM 6:40 PM
Lune descendante, 14% visible
METAR KNID 270456Z 21009KT 10SM CLR 21/M06 A3003 RMK AO2 SLP152 T02061056 $

10-Day Weather Forecast

Almanac

Astronomie

Sep. 26, 2016 Lever Coucher
Temps réel
Crépuscule civil
Crépuscule nautique
Crépuscule astronomique
Lune
Durée de lumière visible
Longueur du jour
Tomorrow will be .
, % of the Moon is Illuminated

Extrêmes aujourd'hui

State Highs State Lows

Community

WunderPhotos

Upload Photos

1,942,038 Photos téléchargées !

WunderBlog® & News

Nearby

Qualité de l'air

  Qualité de l'air Indice de la qualité de l'air Polluant
Not available.

Épaisseur de neige

Station Depth Altitude

Activité sismique

Ville Distance Mag. Time & Date
Minimum magnitude displayed is 2.5.

Températures des eaux côtières

Lieu Température

Stations

Stations météo à proximité

Emplacement de la station Température Refroidissement éolien Point de rosée Humidité Vent Precip. Alt. Mise à jour Type
                   

Watches & Warnings

There are currently no watches in effect.